Time;durP1;ratioP1;P1;durP2;ratioP2;P2;SDS_P1;SDS_P2;PMS_P1;PMS_P2;Temp;Humidity;BMP_temperature;BMP_pressure;BME280_temperature;BME280_humidity;BME280_pressure;Samples;Min_cycle;Max_cycle;Signal;HPM_P1;HPM_P2
2023/09/09 00:01:21;;;;;;;8.50;7.70;;;;;;;17.49;100.00;96530.16;5089885;27;101896;-69
2023/09/09 00:03:49;;;;;;;9.13;8.30;;;;;;;17.44;100.00;96532.13;5090238;27;105716;-69
2023/09/09 00:06:16;;;;;;;11.63;7.67;;;;;;;17.59;100.00;96526.50;5092972;27;102011;-71
2023/09/09 00:08:43;;;;;;;10.00;7.70;;;;;;;17.56;100.00;96537.88;5089977;27;105415;-71
2023/09/09 00:11:11;;;;;;;8.30;7.50;;;;;;;17.60;100.00;96536.22;5089288;27;105724;-72
2023/09/09 00:13:38;;;;;;;9.57;7.17;;;;;;;17.40;100.00;96529.22;5089804;27;101893;-72
2023/09/09 00:16:07;;;;;;;10.23;7.17;;;;;;;17.38;100.00;96522.50;5091136;27;102609;-72
2023/09/09 00:18:34;;;;;;;8.53;7.40;;;;;;;17.27;100.00;96521.81;5089276;27;105500;-71
2023/09/09 00:21:01;;;;;;;9.47;8.63;;;;;;;17.11;100.00;96514.25;5089873;27;102369;-72
2023/09/09 00:23:28;;;;;;;11.73;8.10;;;;;;;17.29;100.00;96526.91;5089674;27;105554;-71
2023/09/09 00:25:55;;;;;;;9.57;8.23;;;;;;;17.33;100.00;96520.66;5092623;27;105815;-70
2023/09/09 00:28:23;;;;;;;9.13;8.23;;;;;;;17.35;100.00;96523.88;5090300;27;102478;-70
2023/09/09 00:30:50;;;;;;;9.40;7.73;;;;;;;17.38;100.00;96515.25;5088968;27;105542;-70
2023/09/09 00:33:19;;;;;;;9.73;8.83;;;;;;;17.27;100.00;96515.66;5091069;27;101931;-70
2023/09/09 00:35:46;;;;;;;11.63;9.10;;;;;;;17.15;100.00;96517.94;5089595;27;105401;-70
2023/09/09 00:38:14;;;;;;;10.50;8.20;;;;;;;17.30;100.00;96525.81;5088999;27;105190;-70
2023/09/09 00:40:44;;;;;;;10.97;8.67;;;;;;;17.39;100.00;96518.75;5089576;27;101847;-71
2023/09/09 00:43:12;;;;;;;10.73;8.40;;;;;;;17.30;100.00;96520.44;5089718;27;105188;-71
2023/09/09 00:45:40;;;;;;;8.90;8.10;;;;;;;17.07;100.00;96518.59;5088809;27;105451;-71
2023/09/09 00:48:08;;;;;;;8.67;7.77;;;;;;;16.99;100.00;96503.09;5094332;27;101836;-71
2023/09/09 00:50:37;;;;;;;7.97;7.23;;;;;;;16.74;100.00;96506.09;5088863;27;105818;-72
2023/09/09 00:53:05;;;;;;;7.60;7.00;;;;;;;16.47;100.00;96505.84;5089353;27;102230;-73
2023/09/09 00:55:39;;;;;;;7.13;6.50;;;;;;;16.48;100.00;96507.44;5089428;27;105119;-73
2023/09/09 00:58:06;;;;;;;8.13;7.40;;;;;;;16.66;100.00;96509.41;5071680;27;105909;-72
2023/09/09 01:00:33;;;;;;;8.23;7.53;;;;;;;16.60;100.00;96497.13;5089311;27;102060;-73
2023/09/09 01:03:00;;;;;;;8.83;7.83;;;;;;;16.76;100.00;96499.38;5089312;27;105456;-73
2023/09/09 01:05:27;;;;;;;8.07;7.40;;;;;;;16.62;100.00;96500.34;5088715;27;105114;-73
2023/09/09 01:07:56;;;;;;;9.10;8.20;;;;;;;16.56;100.00;96501.47;5089147;27;102012;-73
2023/09/09 01:10:24;;;;;;;8.77;7.83;;;;;;;16.57;100.00;96501.16;5092239;27;105459;-73
2023/09/09 01:12:51;;;;;;;7.67;7.07;;;;;;;16.71;100.00;96495.91;5088974;27;101893;-73
2023/09/09 01:15:18;;;;;;;9.07;8.17;;;;;;;16.72;100.00;96498.31;5089342;27;105508;-73
2023/09/09 01:17:45;;;;;;;10.83;9.53;;;;;;;16.79;100.00;96501.47;5090007;27;103134;-73
2023/09/09 01:20:14;;;;;;;10.10;9.13;;;;;;;16.62;100.00;96503.03;5089115;27;101933;-73
2023/09/09 01:22:44;;;;;;;9.77;8.97;;;;;;;16.54;100.00;96495.56;5089020;27;105092;-73
2023/09/09 01:25:11;;;;;;;8.93;8.13;;;;;;;16.67;100.00;96500.28;5088341;27;106202;-73
2023/09/09 01:27:38;;;;;;;10.37;8.90;;;;;;;16.77;100.00;96494.78;5088191;27;102175;-72
2023/09/09 01:30:07;;;;;;;10.13;9.13;;;;;;;16.69;100.00;96498.91;5090630;27;102717;-73
2023/09/09 01:32:34;;;;;;;9.03;7.73;;;;;;;16.71;100.00;96496.72;5091588;27;105502;-73
2023/09/09 01:35:03;;;;;;;7.60;6.93;;;;;;;16.72;100.00;96492.94;5088823;27;105682;-74
2023/09/09 01:37:30;;;;;;;8.27;7.40;;;;;;;16.48;100.00;96496.72;5091517;27;105862;-73
2023/09/09 01:40:04;;;;;;;7.83;7.17;;;;;;;16.35;100.00;96497.38;5092355;27;102073;-72
2023/09/09 01:42:32;;;;;;;10.23;9.23;;;;;;;16.36;100.00;96502.44;5092325;27;105215;-72
2023/09/09 01:44:58;;;;;;;8.37;7.63;;;;;;;16.25;100.00;96497.47;5091667;27;105595;-72
2023/09/09 01:47:25;;;;;;;8.70;7.90;;;;;;;16.34;100.00;96501.91;5092363;27;102051;-73
2023/09/09 01:49:52;;;;;;;8.93;8.03;;;;;;;16.51;100.00;96501.53;5092359;27;104910;-73
2023/09/09 01:52:19;;;;;;;10.17;9.27;;;;;;;16.27;100.00;96500.66;5091587;27;105172;-73
2023/09/09 01:54:46;;;;;;;9.73;8.80;;;;;;;16.45;100.00;96508.03;5095421;27;102065;-73
2023/09/09 01:57:16;;;;;;;8.83;7.80;;;;;;;16.60;100.00;96505.97;5091394;27;105313;-73
2023/09/09 01:59:43;;;;;;;9.03;8.23;;;;;;;16.44;100.00;96496.50;5092153;27;102469;-73
2023/09/09 02:02:10;;;;;;;9.40;8.53;;;;;;;16.30;100.00;96495.50;5092142;27;104918;-73
2023/09/09 02:04:37;;;;;;;9.27;8.47;;;;;;;16.24;100.00;96491.28;5091440;27;104139;-74
2023/09/09 02:07:04;;;;;;;10.67;9.67;;;;;;;16.08;100.00;96497.88;5093295;27;101920;-71
2023/09/09 02:09:31;;;;;;;10.23;9.33;;;;;;;16.33;100.00;96500.31;5091943;27;105799;-70
2023/09/09 02:11:58;;;;;;;10.23;9.33;;;;;;;16.20;100.00;96500.19;5091031;27;105658;-69
2023/09/09 02:14:27;;;;;;;9.40;8.60;;;;;;;16.15;100.00;96493.00;5095347;27;102060;-69
2023/09/09 02:16:54;;;;;;;9.40;8.60;;;;;;;16.59;100.00;96503.56;5091076;27;104568;-69
2023/09/09 02:19:22;;;;;;;9.80;8.80;;;;;;;16.44;100.00;96501.03;5091742;27;101873;-69
2023/09/09 02:21:49;;;;;;;9.90;8.90;;;;;;;16.57;100.00;96493.13;5091856;27;105484;-69
2023/09/09 02:24:16;;;;;;;10.40;9.33;;;;;;;16.67;100.00;96495.69;5092326;27;102803;-69
2023/09/09 02:26:43;;;;;;;9.77;8.97;;;;;;;16.64;100.00;96490.09;5091646;27;102047;-69
2023/09/09 02:29:11;;;;;;;9.40;8.63;;;;;;;16.49;100.00;96498.31;5092409;27;102757;-69
2023/09/09 02:31:39;;;;;;;9.53;8.60;;;;;;;16.52;100.00;96497.75;5091150;27;105786;-69
2023/09/09 02:34:06;;;;;;;9.73;8.77;;;;;;;16.43;100.00;96499.44;5091499;27;101994;-70
2023/09/09 02:36:33;;;;;;;9.03;8.33;;;;;;;16.40;100.00;96491.97;5094325;27;105253;-69
2023/09/09 02:39:01;;;;;;;10.53;8.80;;;;;;;16.58;100.00;96496.63;5091474;27;101990;-69
2023/09/09 02:41:28;;;;;;;9.83;8.83;;;;;;;16.42;100.00;96504.03;5091355;27;104272;-69
2023/09/09 02:43:55;;;;;;;9.27;8.37;;;;;;;16.42;100.00;96503.22;5090699;27;105003;-69
2023/09/09 02:46:23;;;;;;;8.90;8.10;;;;;;;16.31;100.00;96494.47;5091520;27;102148;-69
2023/09/09 02:48:52;;;;;;;10.03;9.13;;;;;;;16.30;100.00;96495.50;5092884;27;102622;-69
2023/09/09 02:51:19;;;;;;;9.40;8.60;;;;;;;16.05;100.00;96487.72;5073636;27;106150;-69
2023/09/09 02:53:46;;;;;;;9.33;8.53;;;;;;;15.95;100.00;96492.34;5091166;27;101964;-69
2023/09/09 02:56:13;;;;;;;9.67;8.70;;;;;;;16.24;100.00;96502.00;5090949;27;105550;-73
2023/09/09 02:58:40;;;;;;;9.83;8.93;;;;;;;16.04;100.00;96496.84;5093943;27;105735;-74
2023/09/09 03:01:07;;;;;;;9.23;8.40;;;;;;;16.08;100.00;96494.41;5073898;27;103857;-73
2023/09/09 03:03:35;;;;;;;8.60;7.90;;;;;;;15.92;100.00;96492.94;5090333;27;105629;-72
2023/09/09 03:06:03;;;;;;;9.43;8.53;;;;;;;16.11;100.00;96491.94;5091084;27;101944;-72
2023/09/09 03:08:31;;;;;;;8.33;7.63;;;;;;;16.01;100.00;96493.91;5090745;27;105143;-73
2023/09/09 03:10:57;;;;;;;12.03;7.60;;;;;;;16.37;100.00;96506.75;5090463;27;105079;-73
2023/09/09 03:13:25;;;;;;;8.87;7.97;;;;;;;16.39;100.00;96503.78;5090822;27;102301;-73
2023/09/09 03:15:52;;;;;;;8.20;7.50;;;;;;;16.09;100.00;96496.78;5090814;27;105289;-72
2023/09/09 03:18:19;;;;;;;8.43;7.73;;;;;;;15.82;100.00;96488.47;5090159;27;105716;-72
2023/09/09 03:20:46;;;;;;;8.43;7.63;;;;;;;15.83;100.00;96489.25;5094484;27;102156;-72
2023/09/09 03:23:14;;;;;;;8.27;7.53;;;;;;;15.65;100.00;96497.97;5089986;27;105412;-72
2023/09/09 03:25:41;;;;;;;8.07;7.37;;;;;;;15.65;100.00;96497.97;5090892;27;102587;-72
2023/09/09 03:28:08;;;;;;;8.10;7.40;;;;;;;15.97;100.00;96503.63;5089787;27;104202;-70
2023/09/09 03:30:55;;;;;;;9.10;8.40;;;;;;;15.75;100.00;96498.69;5090058;27;105528;-72
2023/09/09 03:33:26;;;;;;;9.73;8.93;;;;;;;15.75;100.00;96497.91;5090721;27;102162;-72
2023/09/09 03:35:54;;;;;;;8.87;8.07;;;;;;;15.72;100.00;96493.09;5090565;27;104501;-72
2023/09/09 03:38:23;;;;;;;8.40;7.70;;;;;;;15.78;100.00;96497.31;5089890;27;105890;-72
2023/09/09 03:40:50;;;;;;;7.93;7.33;;;;;;;15.79;100.00;96506.97;5090447;27;101878;-71
2023/09/09 03:43:17;;;;;;;7.77;7.07;;;;;;;15.98;100.00;96502.53;5093376;27;105308;-72
2023/09/09 03:45:44;;;;;;;9.03;8.33;;;;;;;15.77;100.00;96501.91;5090296;27;102016;-72
2023/09/09 03:48:11;;;;;;;7.77;7.07;;;;;;;15.93;100.00;96510.63;5090286;27;105315;-72
2023/09/09 03:50:39;;;;;;;9.00;8.10;;;;;;;15.98;100.00;96506.00;5089636;27;105474;-70
2023/09/09 03:53:06;;;;;;;8.07;7.37;;;;;;;15.74;100.00;96512.34;5090231;27;101944;-70
2023/09/09 03:55:35;;;;;;;10.03;9.10;;;;;;;15.84;100.00;96507.75;5089993;27;104977;-70
2023/09/09 03:58:03;;;;;;;10.03;8.97;;;;;;;15.84;100.00;96501.56;5089610;27;105889;-70
2023/09/09 04:00:30;;;;;;;10.97;8.50;;;;;;;15.85;100.00;96511.19;5089958;27;102092;-70
2023/09/09 04:02:58;;;;;;;9.87;8.43;;;;;;;15.93;100.00;96502.56;5090236;27;104039;-70
2023/09/09 04:05:25;;;;;;;9.10;8.20;;;;;;;15.78;100.00;96502.69;5093040;27;105521;-70
2023/09/09 04:07:52;;;;;;;9.87;8.97;;;;;;;15.84;100.00;96513.09;5090113;27;105744;-70
2023/09/09 04:10:20;;;;;;;10.27;9.30;;;;;;;15.77;100.00;96512.63;5089279;27;104460;-70
2023/09/09 04:12:49;;;;;;;10.40;9.40;;;;;;;15.72;100.00;96515.34;5089869;27;102041;-70
2023/09/09 04:15:16;;;;;;;11.37;10.00;;;;;;;15.66;100.00;96515.66;5089936;27;105528;-70
2023/09/09 04:17:43;;;;;;;11.40;9.97;;;;;;;15.51;100.00;96513.88;5088371;27;105598;-70
2023/09/09 04:20:11;;;;;;;10.37;9.37;;;;;;;15.35;100.00;96511.56;5088630;27;101851;-70
2023/09/09 04:22:39;;;;;;;12.40;11.00;;;;;;;15.33;100.00;96511.84;5089648;27;105490;-70
2023/09/09 04:25:07;;;;;;;13.90;12.27;;;;;;;15.32;100.00;96520.91;5091734;27;104500;-71
2023/09/09 04:27:34;;;;;;;11.90;10.70;;;;;;;15.17;100.00;96517.53;5088368;27;105335;-71
2023/09/09 04:30:03;;;;;;;13.70;11.00;;;;;;;15.21;100.00;96524.72;5088174;27;105508;-70
2023/09/09 04:32:31;;;;;;;12.50;10.17;;;;;;;15.37;100.00;96528.19;5088578;27;101929;-70
2023/09/09 04:34:59;;;;;;;9.90;8.90;;;;;;;15.52;100.00;96533.41;5088506;27;105199;-70
2023/09/09 04:37:27;;;;;;;10.50;9.53;;;;;;;15.56;100.00;96537.16;5019352;27;1151356;-70
2023/09/09 04:41:25;;;;;;;10.50;9.35;;;;;;;-141.26;100.00;62741.75;4604645;27;45772400;-70
2023/09/09 04:43:52;;;;;;;9.30;8.50;;;;;;;15.72;100.00;96528.75;3182659;27;45773475;-71
2023/09/09 04:46:21;;;;;;;9.50;8.60;;;;;;;15.67;100.00;96536.00;5088736;27;102167;-69
2023/09/09 04:48:52;;;;;;;10.17;9.10;;;;;;;15.65;100.00;96541.66;5089415;27;102095;-71
2023/09/09 04:51:20;;;;;;;10.07;8.63;;;;;;;15.51;100.00;96534.50;5092217;27;105367;-72
2023/09/09 04:53:47;;;;;;;9.07;8.30;;;;;;;15.53;100.00;96538.50;5089553;27;102458;-71
2023/09/09 04:56:14;;;;;;;9.87;8.77;;;;;;;15.61;100.00;96542.50;5089631;27;105492;-69
2023/09/09 04:58:42;;;;;;;10.47;9.47;;;;;;;15.60;100.00;96548.94;5090774;27;102752;-70
2023/09/09 05:01:09;;;;;;;12.37;11.17;;;;;;;15.50;100.00;96546.31;5090189;27;101915;-72
2023/09/09 05:03:37;;;;;;;14.87;12.47;;;;;;;15.47;100.00;96542.31;5090490;27;102581;-72
2023/09/09 05:06:04;;;;;;;13.37;11.63;;;;;;;15.73;100.00;96532.22;5088140;27;106049;-72
2023/09/09 05:08:32;;;;;;;14.30;12.20;;;;;;;15.70;100.00;96533.56;5089057;27;101978;-70
2023/09/09 05:10:59;;;;;;;15.23;13.27;;;;;;;15.51;100.00;96534.50;5092749;27;105294;-71
2023/09/09 05:13:26;;;;;;;14.20;12.37;;;;;;;15.66;100.00;96547.81;5092824;27;102070;-71
2023/09/09 05:15:55;;;;;;;15.30;13.00;;;;;;;15.70;100.00;96543.50;5092464;27;105254;-71
2023/09/09 05:18:22;;;;;;;16.13;13.60;;;;;;;15.72;100.00;96546.72;5091966;27;105689;-71
2023/09/09 05:20:51;;;;;;;16.07;13.03;;;;;;;15.83;100.00;96545.56;5092384;27;101937;-71
2023/09/09 05:23:19;;;;;;;16.47;13.67;;;;;;;15.76;100.00;96547.75;5092395;27;105335;-71
2023/09/09 05:25:47;;;;;;;17.40;13.90;;;;;;;15.94;100.00;96563.19;5092923;27;102784;-71
2023/09/09 05:28:14;;;;;;;16.43;14.77;;;;;;;15.95;100.00;96556.72;5091370;27;101961;-71
2023/09/09 05:30:42;;;;;;;17.57;15.37;;;;;;;15.97;100.00;96563.41;5092221;27;105532;-71
2023/09/09 05:33:10;;;;;;;18.67;15.60;;;;;;;16.06;100.00;96563.63;5095191;27;105665;-71
2023/09/09 05:35:37;;;;;;;19.67;16.50;;;;;;;16.11;100.00;96567.06;5092116;27;104226;-71
2023/09/09 05:38:06;;;;;;;18.37;16.47;;;;;;;16.09;100.00;96565.75;5091444;27;105411;-71
2023/09/09 05:40:33;;;;;;;18.00;15.83;;;;;;;16.34;100.00;96566.34;5091816;27;102003;-71
2023/09/09 05:43:00;;;;;;;20.97;18.27;;;;;;;16.28;100.00;96577.38;5091962;27;104658;-71
2023/09/09 05:45:28;;;;;;;20.70;18.13;;;;;;;16.36;100.00;96571.44;5091532;27;104461;-71
2023/09/09 05:47:55;;;;;;;17.63;15.77;;;;;;;16.48;100.00;96575.38;5091842;27;101970;-71
2023/09/09 05:50:22;;;;;;;17.97;15.77;;;;;;;16.63;100.00;96569.06;5092187;27;105293;-71
2023/09/09 05:52:50;;;;;;;18.63;16.13;;;;;;;16.75;100.00;96572.97;5091264;27;105614;-71
2023/09/09 05:55:19;;;;;;;17.40;15.57;;;;;;;16.87;100.00;96570.69;5095352;27;101957;-71
2023/09/09 05:57:46;;;;;;;18.83;16.93;;;;;;;16.86;100.00;96568.28;5091284;27;105499;-71
2023/09/09 06:00:14;;;;;;;18.80;16.83;;;;;;;16.98;100.00;96564.09;5091624;27;101949;-71
2023/09/09 06:02:44;;;;;;;17.70;15.80;;;;;;;17.04;100.00;96572.91;5091810;27;105452;-71
2023/09/09 06:05:13;;;;;;;16.33;14.63;;;;;;;17.61;100.00;96573.53;5091039;27;105869;-71
2023/09/09 06:07:41;;;;;;;17.77;15.97;;;;;;;17.63;100.00;96568.69;5091940;27;101974;-71
2023/09/09 06:10:09;;;;;;;18.27;16.43;;;;;;;17.98;100.00;96562.78;5091548;27;105231;-70
2023/09/09 06:12:38;;;;;;;16.60;14.33;;;;;;;18.12;100.00;96560.97;5090874;27;105622;-72
2023/09/09 06:15:06;;;;;;;16.90;15.10;;;;;;;17.96;100.00;96550.72;5091467;27;101958;-70
2023/09/09 06:17:36;;;;;;;22.00;15.67;;;;;;;18.06;100.00;96555.94;5094462;27;104167;-69
2023/09/09 06:20:03;;;;;;;14.70;13.27;;;;;;;18.41;100.00;96552.69;5091626;27;101988;-69
2023/09/09 06:22:32;;;;;;;15.13;13.60;;;;;;;18.21;100.00;96559.19;5074221;27;105316;-70
2023/09/09 06:24:59;;;;;;;15.20;13.63;;;;;;;18.37;100.00;96557.09;5090928;27;105690;-70
2023/09/09 06:27:27;;;;;;;13.43;12.17;;;;;;;18.41;100.00;96560.75;5091085;27;102085;-70
2023/09/09 06:29:55;;;;;;;12.90;11.67;;;;;;;18.62;100.00;96554.75;5091239;27;105529;-70
2023/09/09 06:32:23;;;;;;;13.00;11.90;;;;;;;18.67;100.00;96556.53;5090581;27;105333;-74
2023/09/09 06:34:50;;;;;;;12.33;11.23;;;;;;;18.68;100.00;96558.13;5091078;27;103313;-73
2023/09/09 06:37:17;;;;;;;11.80;10.80;;;;;;;18.67;100.00;96567.31;5091020;27;105185;-73
2023/09/09 06:39:44;;;;;;;11.43;10.47;;;;;;;18.69;100.00;96570.53;5094238;27;104167;-73
2023/09/09 06:42:13;;;;;;;12.23;11.13;;;;;;;18.63;100.00;96575.19;5090983;27;105601;-74
2023/09/09 06:44:42;;;;;;;11.17;10.20;;;;;;;18.73;100.00;96571.50;5090295;27;105406;-74
2023/09/09 06:47:11;;;;;;;11.70;10.70;;;;;;;18.83;100.00;96564.06;5090103;27;101968;-74
2023/09/09 06:49:38;;;;;;;11.60;10.60;;;;;;;19.06;100.00;96573.03;5090102;27;104017;-74
2023/09/09 06:52:06;;;;;;;11.13;10.23;;;;;;;19.10;100.00;96565.97;5089706;27;105964;-74
2023/09/09 06:54:33;;;;;;;10.90;9.90;;;;;;;19.19;100.00;96572.25;5090005;27;102349;-74
2023/09/09 06:57:00;;;;;;;11.47;10.37;;;;;;;19.39;100.00;96571.88;5091227;27;105407;-74
2023/09/09 06:59:26;;;;;;;11.97;10.97;;;;;;;19.37;100.00;96566.00;5089744;27;105745;-74
2023/09/09 07:01:54;;;;;;;10.63;9.73;;;;;;;19.54;100.00;96568.84;5094550;27;101866;-74
2023/09/09 07:04:22;;;;;;;11.47;10.47;;;;;;;19.78;100.00;96564.81;5091860;27;102804;-74
2023/09/09 07:06:49;;;;;;;12.27;11.23;;;;;;;19.73;100.00;96570.31;5089913;27;102037;-74
2023/09/09 07:09:15;;;;;;;11.83;10.83;;;;;;;19.92;100.00;96567.47;5089804;27;105588;-74
2023/09/09 07:11:42;;;;;;;11.90;10.90;;;;;;;20.20;100.00;96563.59;5089302;27;105852;-74
2023/09/09 07:14:09;;;;;;;13.27;12.17;;;;;;;20.12;100.00;96565.13;5089651;27;101984;-74
2023/09/09 07:16:36;;;;;;;12.67;11.67;;;;;;;20.33;100.00;96568.94;5090107;27;105233;-74
2023/09/09 07:19:04;;;;;;;12.23;10.90;;;;;;;20.46;100.00;96564.59;5089587;27;105273;-74
2023/09/09 07:21:33;;;;;;;12.00;10.90;;;;;;;20.38;100.00;96560.72;5093456;27;102038;-74
2023/09/09 07:24:00;;;;;;;11.60;10.50;;;;;;;20.62;100.00;96566.59;5089035;27;105597;-74
2023/09/09 07:26:27;;;;;;;11.47;10.50;;;;;;;20.78;100.00;96559.69;5089938;27;101882;-74
2023/09/09 07:28:54;;;;;;;12.13;11.03;;;;;;;20.87;100.00;96551.63;5089316;27;104969;-74
2023/09/09 07:31:21;;;;;;;11.33;10.33;;;;;;;20.99;100.00;96551.88;5088990;27;105215;-74
2023/09/09 07:33:48;;;;;;;10.63;9.73;;;;;;;21.17;100.00;96556.22;5088493;27;101890;-74
2023/09/09 07:36:15;;;;;;;11.10;9.93;;;;;;;21.32;100.00;96553.09;5090527;27;105555;-74
2023/09/09 07:38:43;;;;;;;11.53;10.53;;;;;;;21.50;100.00;96554.72;5089874;27;105325;-74
2023/09/09 07:41:10;;;;;;;10.87;9.97;;;;;;;21.68;100.00;96551.78;5089342;27;101892;-74
2023/09/09 07:43:37;;;;;;;10.20;9.40;;;;;;;21.74;100.00;96549.72;5092363;27;105906;-74
2023/09/09 07:46:04;;;;;;;9.93;9.03;;;;;;;21.76;100.00;96555.59;5089456;27;101951;-74
2023/09/09 07:48:31;;;;;;;9.80;9.00;;;;;;;22.00;100.00;96554.03;5089549;27;105431;-74
2023/09/09 07:50:59;;;;;;;10.53;9.57;;;;;;;22.19;100.00;96545.59;5088858;27;106494;-74
2023/09/09 07:53:26;;;;;;;9.77;8.87;;;;;;;22.12;100.00;96539.84;5089674;27;102171;-74
2023/09/09 07:55:54;;;;;;;9.70;8.87;;;;;;;22.45;100.00;96544.47;5089464;27;105051;-74
2023/09/09 07:58:21;;;;;;;10.17;9.37;;;;;;;22.51;100.00;96547.81;5088623;27;104062;-74
2023/09/09 08:00:48;;;;;;;10.50;9.60;;;;;;;22.67;100.00;96546.19;5089753;27;101993;-74
2023/09/09 08:03:15;;;;;;;9.07;8.30;;;;;;;22.87;100.00;96545.47;5090147;27;105562;-74
2023/09/09 08:05:42;;;;;;;10.27;9.37;;;;;;;22.83;100.00;96553.47;5092818;27;105196;-74
2023/09/09 08:08:10;;;;;;;9.07;8.37;;;;;;;23.12;100.00;96544.59;5090329;27;105597;-74
2023/09/09 08:10:37;;;;;;;9.67;8.87;;;;;;;23.27;100.00;96552.22;5089413;27;105442;-74
2023/09/09 08:13:05;;;;;;;9.50;8.60;;;;;;;22.82;100.00;96557.28;5089911;27;102325;-74
2023/09/09 08:15:32;;;;;;;9.20;8.33;;;;;;;23.07;100.00;96561.03;5090889;27;102919;-74
2023/09/09 08:17:59;;;;;;;9.23;8.33;;;;;;;23.28;100.00;96554.56;5089389;27;104956;-74
2023/09/09 08:20:26;;;;;;;9.53;8.63;;;;;;;23.67;100.00;96548.78;5089825;27;102008;-74
2023/09/09 08:22:53;;;;;;;9.47;8.57;;;;;;;23.65;100.00;96558.41;5089857;27;105677;-74
2023/09/09 08:25:20;;;;;;;9.40;8.30;;;;;;;23.75;100.00;96558.78;5089163;27;104592;-74
2023/09/09 08:27:47;;;;;;;8.57;7.87;;;;;;;24.16;100.00;96560.75;5092576;27;102002;-74
2023/09/09 08:30:17;;;;;;;8.47;7.73;;;;;;;24.39;100.00;96559.28;5089255;27;105204;-74
2023/09/09 08:32:44;;;;;;;8.47;7.77;;;;;;;24.62;100.00;96557.81;5089640;27;102000;-74
2023/09/09 08:35:10;;;;;;;8.90;8.10;;;;;;;24.42;100.00;96559.41;5089807;27;105692;-74
2023/09/09 08:37:37;;;;;;;8.77;7.80;;;;;;;24.17;100.00;96559.63;5088795;27;105737;-74
2023/09/09 08:40:05;;;;;;;10.57;9.63;;;;;;;24.47;100.00;96561.91;5089667;27;102037;-74
2023/09/09 08:42:47;;;;;;;8.77;8.07;;;;;;;24.70;100.00;96565.91;5089406;27;105657;-74
2023/09/09 08:45:25;;;;;;;8.47;7.77;;;;;;;24.95;100.00;96566.75;5090284;27;105250;-74
2023/09/09 08:47:56;;;;;;;8.57;7.77;;;;;;;25.16;100.00;96567.44;5093225;27;101986;-74
2023/09/09 08:50:25;;;;;;;9.07;8.23;;;;;;;25.03;100.00;96569.38;5096068;27;105065;-74
2023/09/09 08:52:54;;;;;;;8.67;7.87;;;;;;;25.20;100.00;96557.47;5093294;27;102053;-74
2023/09/09 08:55:21;;;;;;;9.13;8.00;;;;;;;25.52;100.00;96557.41;5093067;27;105271;-70
2023/09/09 08:57:50;;;;;;;7.80;7.17;;;;;;;25.56;100.00;96560.25;5092517;27;105481;-70
2023/09/09 09:00:19;;;;;;;8.67;7.87;;;;;;;25.80;100.00;96557.47;5093073;27;101966;-70
2023/09/09 09:02:49;;;;;;;8.07;7.43;;;;;;;25.91;100.00;96555.91;5093100;27;105254;-70
2023/09/09 09:05:17;;;;;;;8.00;7.40;;;;;;;26.11;100.00;96552.22;5092509;27;104857;-70
2023/09/09 09:07:44;;;;;;;11.50;9.27;;;;;;;26.06;100.00;96557.94;5093402;27;102550;-70
2023/09/09 09:10:11;;;;;;;13.47;11.83;;;;;;;26.03;100.00;96564.06;5093127;27;104456;-70
2023/09/09 09:12:41;;;;;;;9.37;8.57;;;;;;;26.06;100.00;96564.19;5095483;27;101983;-70
2023/09/09 09:15:11;;;;;;;8.50;7.73;;;;;;;26.19;100.00;96556.75;5092654;27;104380;-70
2023/09/09 09:17:40;;;;;;;13.60;8.50;;;;;;;26.19;100.00;96556.75;5092067;27;105374;-70
2023/09/09 09:20:24;;;;;;;10.13;7.43;;;;;;;26.62;100.00;96551.38;5092765;27;101932;-70
2023/09/09 09:22:51;;;;;;;7.53;6.83;;;;;;;26.88;100.00;96554.44;5092861;27;105610;-67
2023/09/09 09:25:21;;;;;;;7.87;7.17;;;;;;;27.07;100.00;96551.78;5092104;27;105328;-70
2023/09/09 09:27:48;;;;;;;8.80;7.50;;;;;;;27.14;100.00;96550.03;5093317;27;102062;-70
2023/09/09 09:30:15;;;;;;;7.10;6.40;;;;;;;27.05;100.00;96545.91;5092863;27;104447;-70
2023/09/09 09:32:44;;;;;;;7.90;7.27;;;;;;;26.97;100.00;96549.59;5095472;27;105997;-70
2023/09/09 09:35:24;;;;;;;8.77;6.73;;;;;;;27.18;100.00;96548.22;5092588;27;104170;-70
2023/09/09 09:37:54;;;;;;;9.13;8.17;;;;;;;27.14;100.00;96552.00;5091633;27;105643;-70
2023/09/09 09:40:22;;;;;;;8.32;7.57;;;;;;;26.76;100.00;96543.59;5092378;27;102187;-70
2023/09/09 09:42:50;;;;;;;7.90;7.20;;;;;;;27.04;100.00;96542.41;5092557;27;105196;-70
2023/09/09 09:45:18;;;;;;;7.18;6.57;;;;;;;27.48;100.00;96538.44;5091553;27;105834;-70
2023/09/09 09:47:47;;;;;;;7.23;6.57;;;;;;;27.78;100.00;96538.75;5092648;27;101848;-70
2023/09/09 09:50:20;;;;;;;7.13;6.53;;;;;;;28.00;100.00;96543.56;5092529;27;105486;-70
2023/09/09 09:52:49;;;;;;;7.10;6.60;;;;;;;28.16;100.00;96549.78;5091522;27;105254;-70
2023/09/09 09:55:19;;;;;;;6.65;6.13;;;;;;;28.31;100.00;96544.22;5095323;27;101931;-70
2023/09/09 09:57:47;;;;;;;9.02;7.28;;;;;;;28.42;100.00;96544.47;5090689;27;105563;-70
2023/09/09 10:00:16;;;;;;;7.30;6.70;;;;;;;28.35;100.00;96542.38;5092247;27;102152;-70
2023/09/09 10:02:47;;;;;;;10.50;7.03;;;;;;;28.45;100.00;96544.53;5092123;27;105797;-70
2023/09/09 10:05:17;;;;;;;6.88;6.28;;;;;;;28.54;100.00;96541.56;5091549;27;105405;-70
2023/09/09 10:07:51;;;;;;;7.25;6.65;;;;;;;28.59;100.00;96538.56;5091916;27;101904;-70
2023/09/09 10:10:21;;;;;;;6.82;6.22;;;;;;;28.63;100.00;96533.94;5091832;27;105354;-70
2023/09/09 10:12:53;;;;;;;7.85;7.15;;;;;;;29.27;100.00;96537.47;5091446;27;105550;-70
2023/09/09 10:15:21;;;;;;;7.38;6.68;;;;;;;29.41;100.00;96534.97;5091642;27;101990;-70
2023/09/09 10:17:50;;;;;;;6.70;6.30;;;;;;;29.38;100.00;96532.19;5094602;27;105448;-70
2023/09/09 10:20:20;;;;;;;7.55;6.47;;;;;;;29.77;100.00;96533.59;5093171;27;101922;-70
2023/09/09 10:22:49;;;;;;;6.57;6.07;;;;;;;29.52;100.00;96526.91;5091897;27;105471;-70
2023/09/09 10:25:17;;;;;;;6.75;6.25;;;;;;;29.49;100.00;96530.41;5091122;27;105747;-70
2023/09/09 10:27:45;;;;;;;7.00;6.50;;;;;;;29.42;100.00;96533.06;5092548;27;101872;-70
2023/09/09 10:30:13;;;;;;;7.85;7.07;;;;;;;29.34;100.00;96528.59;5091490;27;105446;-70
2023/09/09 10:32:42;;;;;;;5.97;5.57;;;;;;;29.90;100.00;96527.53;5091130;27;105123;-70
2023/09/09 10:35:10;;;;;;;7.47;6.88;;;;;;;28.04;100.00;96528.00;5092912;27;101849;-70
2023/09/09 10:37:39;;;;;;;6.80;6.20;;;;;;;28.87;100.00;96523.47;5091255;27;105293;-70
2023/09/09 10:40:08;;;;;;;6.80;6.20;;;;;;;29.34;100.00;96510.22;5094250;27;105617;-70
2023/09/09 10:42:41;;;;;;;6.78;6.28;;;;;;;28.76;100.00;96522.47;5091403;27;105256;-70
2023/09/09 10:45:25;;;;;;;7.00;6.35;;;;;;;28.58;100.00;96523.28;5090739;27;106116;-70
2023/09/09 10:47:57;;;;;;;7.15;6.55;;;;;;;28.83;100.00;96522.59;5091362;27;101908;-69
2023/09/09 10:50:38;;;;;;;6.63;6.07;;;;;;;29.25;100.00;96511.63;5091353;27;105580;-70
2023/09/09 10:53:18;;;;;;;6.55;6.00;;;;;;;29.81;100.00;96510.56;5090842;27;105886;-70
2023/09/09 10:55:47;;;;;;;6.68;6.07;;;;;;;29.43;100.00;96504.47;5091213;27;102027;-70
2023/09/09 10:58:18;;;;;;;6.75;6.10;;;;;;;29.49;100.00;96506.56;5092598;27;102958;-70
2023/09/09 11:00:47;;;;;;;7.75;6.70;;;;;;;29.60;100.00;96506.72;5090536;27;105882;-70
2023/09/09 11:03:16;;;;;;;7.20;6.53;;;;;;;29.48;100.00;96504.16;5094897;27;102092;-70
2023/09/09 11:06:04;;;;;;;6.63;6.15;;;;;;;30.24;100.00;96506.47;5091941;27;102817;-70
2023/09/09 11:08:36;;;;;;;7.22;6.60;;;;;;;30.21;100.00;96508.00;5089634;27;102228;-70
2023/09/09 11:11:12;;;;;;;7.10;6.50;;;;;;;30.06;100.00;96502.66;5091107;27;105245;-70
2023/09/09 11:13:41;;;;;;;6.72;6.22;;;;;;;29.44;100.00;96506.06;5091669;27;102771;-70
2023/09/09 11:16:08;;;;;;;7.35;6.80;;;;;;;29.00;100.00;96500.25;5090870;27;101908;-70
2023/09/09 11:18:36;;;;;;;7.53;6.93;;;;;;;29.82;100.00;96497.66;5090860;27;105242;-70